Time;durP1;ratioP1;P1;durP2;ratioP2;P2;SDS_P1;SDS_P2;PMS_P1;PMS_P2;Temp;Humidity;BMP_temperature;BMP_pressure;BME280_temperature;BME280_humidity;BME280_pressure;Samples;Min_cycle;Max_cycle;Signal;HPM_P1;HPM_P2
2023/06/08 00:01:44;;;;;;;4.87;4.57;;;19.00;99.90;;;;;;5084677;28;20443;-77
2023/06/08 00:04:30;;;;;;;4.87;4.57;;;19.00;99.90;;;;;;5090737;28;21230;-76
2023/06/08 00:07:08;;;;;;;5.90;5.30;;;19.00;99.90;;;;;;5086039;28;20440;-77
2023/06/08 00:10:14;;;;;;;4.97;4.67;;;18.90;99.90;;;;;;5074625;28;20469;-77
2023/06/08 00:13:35;;;;;;;5.30;4.90;;;18.80;99.90;;;;;;5067047;28;20469;-77
2023/06/08 00:17:15;;;;;;;;;;;;;;;;;;;;;
2023/06/08 00:23:29;;;;;;;5.20;4.80;;;18.50;99.90;;;;;;4953309;28;20441;-76
2023/06/08 00:36:30;;;;;;;5.83;4.83;;;18.30;99.90;;;;;;5057772;28;20972;-78
2023/06/08 01:10:32;;;;;;;6.67;5.00;;;17.90;99.90;;;;;;5019912;28;21379;-77
2023/06/08 01:14:03;;;;;;;6.30;5.77;;;17.90;99.90;;;;;;5013889;28;20485;-77
2023/06/08 01:20:15;;;;;;;8.67;5.23;;;17.80;99.90;;;;;;5016768;28;20530;-76
2023/06/08 01:29:44;;;;;;;7.30;6.60;;;17.60;99.90;;;;;;5030495;28;20519;-77
2023/06/08 01:32:30;;;;;;;8.00;7.27;;;17.50;99.90;;;;;;5059372;28;20507;-78
2023/06/08 01:38:36;;;;;;;6.70;6.20;;;17.50;99.90;;;;;;5062378;28;20456;-77
2023/06/08 01:41:23;;;;;;;7.10;6.40;;;17.50;99.90;;;;;;5065066;28;20485;-77
2023/06/08 01:48:07;;;;;;;6.47;5.90;;;17.50;99.90;;;;;;4961041;28;20531;-76
2023/06/08 01:54:12;;;;;;;8.10;6.80;;;17.40;99.90;;;;;;5055006;28;20445;-76
2023/06/08 02:00:23;;;;;;;6.73;6.23;;;17.40;99.90;;;;;;5036857;28;20434;-76
2023/06/08 02:03:11;;;;;;;6.87;6.20;;;17.30;99.90;;;;;;4985362;28;20548;-77
2023/06/08 02:06:03;;;;;;;6.90;6.30;;;17.20;99.90;;;;;;4982202;28;20532;-77
2023/06/08 02:08:41;;;;;;;6.93;6.30;;;17.20;99.90;;;;;;4982946;28;20453;-78
2023/06/08 02:11:23;;;;;;;6.63;6.13;;;16.80;99.90;;;;;;4981935;28;20531;-78
2023/06/08 02:14:14;;;;;;;6.30;5.80;;;17.10;99.90;;;;;;5029742;28;20473;-76
2023/06/08 02:16:52;;;;;;;9.53;6.27;;;17.10;99.90;;;;;;5061342;28;20887;-77
2023/06/08 02:19:27;;;;;;;6.73;6.17;;;17.10;99.90;;;;;;5065340;28;20454;-77
2023/06/08 02:22:16;;;;;;;6.37;5.83;;;16.90;99.90;;;;;;5090278;28;20469;-76
2023/06/08 02:25:34;;;;;;;;;;;;;;;;;;;;;
2023/06/08 02:28:38;;;;;;;6.37;5.93;;;16.90;99.90;;;;;;5090351;28;20436;-76
2023/06/08 02:31:18;;;;;;;7.80;5.57;;;16.80;99.90;;;;;;5068436;28;20473;-76
2023/06/08 02:37:21;;;;;;;;;;;;;;;;;;;;;
2023/06/08 02:42:59;;;;;;;8.10;7.40;;;16.70;99.90;;;;;;5084079;28;20460;-77
2023/06/08 02:45:32;;;;;;;7.13;6.57;;;16.60;99.90;;;;;;5084425;28;20448;-77
2023/06/08 02:48:12;;;;;;;7.93;7.10;;;16.50;99.90;;;;;;5084377;28;20471;-77
2023/06/08 02:51:05;;;;;;;7.03;6.43;;;16.50;99.90;;;;;;5085333;28;20476;-76
2023/06/08 02:53:39;;;;;;;7.13;6.53;;;16.40;99.90;;;;;;5076175;28;20448;-76
2023/06/08 02:56:15;;;;;;;7.80;7.17;;;16.40;99.90;;;;;;5085273;28;20510;-76
2023/06/08 02:58:54;;;;;;;7.60;6.47;;;16.40;99.90;;;;;;5084858;28;20479;-77
2023/06/08 03:01:53;;;;;;;6.83;6.23;;;16.40;99.90;;;;;;5084695;28;20461;-76
2023/06/08 03:04:30;;;;;;;6.97;6.37;;;16.30;99.90;;;;;;5085413;28;20436;-77
2023/06/08 03:07:15;;;;;;;7.13;6.60;;;16.30;99.90;;;;;;5084984;28;20444;-77
2023/06/08 03:09:57;;;;;;;7.47;6.77;;;16.30;99.90;;;;;;5085677;28;20465;-77
2023/06/08 03:12:55;;;;;;;7.20;6.60;;;16.20;99.90;;;;;;5086662;28;20476;-78
2023/06/08 03:15:53;;;;;;;7.20;6.60;;;16.20;99.90;;;;;;5085039;28;20857;-77
2023/06/08 03:18:52;;;;;;;8.07;7.00;;;16.20;99.90;;;;;;5055667;28;20483;-77
2023/06/08 03:24:54;;;;;;;7.20;6.70;;;16.20;99.90;;;;;;5065535;28;20429;-77
2023/06/08 03:27:33;;;;;;;8.43;7.50;;;16.20;99.90;;;;;;5066572;28;20532;-76
2023/06/08 03:30:39;;;;;;;6.73;6.23;;;16.20;99.90;;;;;;5066242;28;20472;-77
2023/06/08 03:33:53;;;;;;;8.60;6.90;;;16.20;99.90;;;;;;5057635;28;20450;-77
2023/06/08 03:36:33;;;;;;;7.80;6.80;;;16.10;99.90;;;;;;5068970;28;20461;-78
2023/06/08 03:40:04;;;;;;;7.27;6.77;;;16.10;99.90;;;;;;5073971;28;20433;-78
2023/06/08 03:42:50;;;;;;;7.60;7.00;;;16.00;99.90;;;;;;5033245;28;20624;-79
2023/06/08 03:45:33;;;;;;;7.40;6.57;;;16.00;99.90;;;;;;5049215;28;20465;-77
2023/06/08 03:48:11;;;;;;;6.83;6.23;;;15.90;99.90;;;;;;5064616;28;20494;-78
2023/06/08 03:50:51;;;;;;;7.20;6.60;;;15.90;99.90;;;;;;5060050;28;20481;-77
2023/06/08 03:53:35;;;;;;;7.23;6.63;;;16.00;99.90;;;;;;5058193;28;20805;-77
2023/06/08 03:56:38;;;;;;;7.13;6.53;;;16.00;99.90;;;;;;5058355;28;20455;-76
2023/06/08 04:05:34;;;;;;;7.30;6.70;;;16.00;99.90;;;;;;5062220;28;20867;-76
2023/06/08 04:08:19;;;;;;;8.00;7.37;;;16.00;99.90;;;;;;5060677;28;20493;-77
2023/06/08 04:13:44;;;;;;;7.67;7.07;;;16.00;99.90;;;;;;5126148;22;20897;-77
2023/06/08 04:19:15;;;;;;;8.70;7.77;;;15.80;99.90;;;;;;5079461;28;20433;-78
2023/06/08 04:22:12;;;;;;;8.50;7.90;;;15.80;99.90;;;;;;5094009;28;20539;-77
2023/06/08 04:28:18;;;;;;;8.67;7.80;;;15.80;99.90;;;;;;5099596;28;20451;-77
2023/06/08 04:34:40;;;;;;;9.00;8.20;;;15.90;99.90;;;;;;5114114;28;20440;-77
2023/06/08 04:37:26;;;;;;;7.80;7.20;;;15.90;99.90;;;;;;5105685;28;20457;-75
2023/06/08 04:40:20;;;;;;;8.07;7.47;;;16.00;99.90;;;;;;5119009;28;20448;-76
2023/06/08 04:43:05;;;;;;;8.13;7.47;;;16.00;99.90;;;;;;5119190;28;20459;-77
2023/06/08 04:45:40;;;;;;;8.40;7.80;;;16.00;99.90;;;;;;5119776;28;20420;-77
2023/06/08 04:48:24;;;;;;;7.63;6.83;;;16.00;99.90;;;;;;5119768;28;20421;-75
2023/06/08 04:51:09;;;;;;;8.77;7.97;;;16.20;99.90;;;;;;5119305;28;20482;-75
2023/06/08 04:53:53;;;;;;;8.07;7.37;;;15.80;99.90;;;;;;5119097;28;20447;-76
2023/06/08 04:56:45;;;;;;;8.50;7.80;;;16.30;99.90;;;;;;5119085;28;20439;-76
2023/06/08 04:59:37;;;;;;;7.80;7.17;;;16.40;99.90;;;;;;5118942;28;20473;-76
2023/06/08 05:05:50;;;;;;;8.67;8.03;;;16.60;99.90;;;;;;5083171;28;20428;-75
2023/06/08 05:08:27;;;;;;;7.90;7.40;;;16.70;99.90;;;;;;5117952;28;20431;-75
2023/06/08 05:11:08;;;;;;;8.93;8.20;;;16.80;99.90;;;;;;5118473;28;20471;-75
2023/06/08 05:14:00;;;;;;;8.20;7.50;;;16.90;99.90;;;;;;5118228;28;20460;-76
2023/06/08 05:16:32;;;;;;;8.60;7.90;;;17.00;99.90;;;;;;5118903;28;20428;-75
2023/06/08 05:19:13;;;;;;;;;;;;;;;;;;;;;
2023/06/08 05:22:06;;;;;;;9.47;7.97;;;17.40;99.90;;;;;;5118496;28;20450;-76
2023/06/08 05:24:38;;;;;;;7.67;7.03;;;17.50;99.90;;;;;;5119169;28;20495;-75
2023/06/08 05:27:26;;;;;;;8.17;7.47;;;17.70;99.90;;;;;;5119536;28;20490;-75
2023/06/08 05:30:08;;;;;;;8.03;7.23;;;17.90;99.90;;;;;;5119379;28;20478;-77
2023/06/08 05:32:49;;;;;;;7.80;7.20;;;18.00;99.90;;;;;;5118846;28;20439;-78
2023/06/08 05:35:36;;;;;;;8.13;7.53;;;18.10;99.90;;;;;;5119466;28;20511;-76
2023/06/08 05:38:19;;;;;;;7.00;6.40;;;18.20;99.90;;;;;;5119656;28;20443;-78
2023/06/08 05:40:59;;;;;;;8.47;7.80;;;18.50;99.90;;;;;;5119224;28;20467;-78
2023/06/08 05:47:00;;;;;;;8.20;7.50;;;18.10;99.90;;;;;;5112288;28;20423;-80
2023/06/08 05:49:51;;;;;;;7.83;7.23;;;18.20;99.90;;;;;;5116164;28;20470;-77
2023/06/08 05:52:52;;;;;;;7.53;7.03;;;18.10;99.90;;;;;;5111759;28;20483;-76
2023/06/08 05:55:27;;;;;;;8.90;8.10;;;18.30;99.90;;;;;;5105320;28;20456;-77
2023/06/08 05:58:18;;;;;;;;;;;;;;;;;;;;;
2023/06/08 06:00:59;;;;;;;7.43;6.83;;;18.70;99.90;;;;;;5101076;28;20503;-79
2023/06/08 06:06:55;;;;;;;8.53;7.83;;;19.10;99.90;;;;;;5102747;28;20424;-76
2023/06/08 06:09:24;;;;;;;7.80;7.10;;;19.30;99.90;;;;;;5103652;28;20436;-76
2023/06/08 06:12:01;;;;;;;7.87;7.27;;;19.50;99.90;;;;;;5104443;28;20535;-77
2023/06/08 06:14:40;;;;;;;7.17;6.67;;;19.70;99.90;;;;;;5104354;28;20478;-76
2023/06/08 06:17:20;;;;;;;7.73;7.10;;;20.00;99.90;;;;;;5105458;28;20451;-78
2023/06/08 06:19:52;;;;;;;7.87;7.27;;;20.20;99.90;;;;;;5106012;28;20444;-76
2023/06/08 06:22:27;;;;;;;7.50;7.00;;;20.30;99.90;;;;;;5106494;28;20492;-77
2023/06/08 06:25:04;;;;;;;7.50;7.00;;;20.20;99.90;;;;;;5105220;28;20500;-77
2023/06/08 06:27:44;;;;;;;7.00;6.50;;;20.30;99.90;;;;;;5100140;28;20454;-76
2023/06/08 06:30:38;;;;;;;8.10;7.50;;;20.30;99.90;;;;;;5100850;28;20474;-76
2023/06/08 06:33:14;;;;;;;8.03;7.27;;;20.10;99.90;;;;;;5086789;28;20459;-76
2023/06/08 06:36:06;;;;;;;7.70;7.10;;;20.30;99.90;;;;;;5105574;28;20464;-76
2023/06/08 06:38:40;;;;;;;7.33;6.73;;;20.20;99.90;;;;;;5103881;28;20455;-77
2023/06/08 06:41:20;;;;;;;6.73;6.33;;;20.20;99.90;;;;;;5104348;28;20471;-77
2023/06/08 06:44:11;;;;;;;7.73;6.80;;;20.30;99.90;;;;;;5105802;28;20451;-77
2023/06/08 06:46:43;;;;;;;6.90;6.40;;;20.40;99.90;;;;;;5095026;28;20448;-76
2023/06/08 06:49:39;;;;;;;6.50;5.97;;;20.50;99.90;;;;;;5100644;28;20459;-77
2023/06/08 06:52:16;;;;;;;6.63;6.23;;;20.40;99.90;;;;;;5090103;28;20899;-77
2023/06/08 06:54:59;;;;;;;6.80;6.40;;;20.40;99.90;;;;;;5085721;28;20815;-76
2023/06/08 06:57:52;;;;;;;6.43;6.03;;;20.60;99.90;;;;;;5084220;28;20476;-77
2023/06/08 07:04:05;;;;;;;6.97;6.47;;;20.90;99.90;;;;;;5071223;28;20424;-77
2023/06/08 07:06:48;;;;;;;7.00;6.40;;;21.10;99.90;;;;;;5107511;28;20656;-77
2023/06/08 07:09:24;;;;;;;6.80;6.40;;;21.10;99.90;;;;;;5105028;28;20458;-77
2023/06/08 07:11:58;;;;;;;8.10;7.30;;;21.10;99.90;;;;;;5107532;28;20482;-76
2023/06/08 07:14:32;;;;;;;6.77;6.17;;;21.20;99.90;;;;;;5107073;28;20452;-77
2023/06/08 07:17:14;;;;;;;6.20;5.80;;;21.30;99.90;;;;;;5108265;28;20971;-77
2023/06/08 07:19:48;;;;;;;6.77;6.37;;;21.50;99.90;;;;;;5108209;28;20446;-77
2023/06/08 07:22:31;;;;;;;6.73;6.20;;;21.80;99.90;;;;;;5107823;28;20497;-77
2023/06/08 07:25:13;;;;;;;6.87;6.37;;;21.90;99.90;;;;;;5104734;28;20446;-76
2023/06/08 07:27:55;;;;;;;6.53;6.07;;;21.90;99.90;;;;;;5104386;28;20454;-76
2023/06/08 07:33:29;;;;;;;6.27;5.60;;;22.00;99.90;;;;;;5104612;28;21202;-76
2023/06/08 07:36:04;;;;;;;6.10;5.70;;;22.20;99.90;;;;;;5102033;28;20468;-76
2023/06/08 07:38:54;;;;;;;;;;;;;;;;;;;;;
2023/06/08 07:41:27;;;;;;;5.87;5.57;;;22.40;99.90;;;;;;5103873;28;20448;-75
2023/06/08 07:44:03;;;;;;;5.67;5.20;;;22.40;99.90;;;;;;5103044;28;20469;-77
2023/06/08 07:46:32;;;;;;;6.40;5.90;;;22.40;99.90;;;;;;5102114;28;20447;-76
2023/06/08 07:49:03;;;;;;;5.50;5.10;;;22.30;99.90;;;;;;5102824;28;20435;-77
2023/06/08 07:51:40;;;;;;;6.07;5.67;;;22.60;99.90;;;;;;5102514;28;20562;-77
2023/06/08 07:54:23;;;;;;;5.93;5.33;;;22.80;99.90;;;;;;5105512;28;20534;-77
2023/06/08 07:57:11;;;;;;;6.00;5.60;;;23.00;99.90;;;;;;5104475;28;20423;-76
2023/06/08 07:59:59;;;;;;;7.57;6.00;;;23.10;99.90;;;;;;5102443;28;20455;-76
2023/06/08 08:02:38;;;;;;;6.00;5.50;;;23.20;99.90;;;;;;5102904;28;20464;-75
2023/06/08 08:05:19;;;;;;;6.03;5.63;;;23.30;99.90;;;;;;5103513;28;20467;-75
2023/06/08 08:08:03;;;;;;;6.00;5.60;;;23.20;99.90;;;;;;5101615;28;20455;-76
2023/06/08 08:10:43;;;;;;;6.03;5.60;;;23.20;99.90;;;;;;5102580;28;20467;-76
2023/06/08 08:13:32;;;;;;;6.10;5.70;;;23.20;99.90;;;;;;5101544;28;20470;-76
2023/06/08 08:16:01;;;;;;;6.60;6.20;;;23.30;99.90;;;;;;5100776;28;20447;-77
2023/06/08 08:18:34;;;;;;;6.60;6.10;;;23.00;99.90;;;;;;5101709;28;20455;-76
2023/06/08 08:21:31;;;;;;;;;;;;;;;;;;;;;
2023/06/08 08:23:59;;;;;;;6.40;6.00;;;23.40;99.90;;;;;;5103878;28;20451;-77
2023/06/08 08:26:28;;;;;;;6.93;6.33;;;23.70;99.90;;;;;;5104334;28;20451;-78
2023/06/08 08:28:56;;;;;;;7.73;7.03;;;23.60;99.90;;;;;;5101532;28;20483;-77
2023/06/08 08:31:25;;;;;;;7.60;7.10;;;23.50;99.90;;;;;;5103526;28;20468;-77
2023/06/08 08:33:59;;;;;;;7.37;6.87;;;23.20;99.90;;;;;;5105539;28;20523;-78
2023/06/08 08:36:29;;;;;;;8.03;7.40;;;23.40;99.90;;;;;;5103462;28;20459;-76
2023/06/08 08:39:00;;;;;;;7.63;6.93;;;23.70;99.90;;;;;;5109758;28;20444;-76
2023/06/08 08:41:30;;;;;;;8.10;7.00;;;24.00;99.90;;;;;;5115921;28;20444;-76
2023/06/08 08:44:03;;;;;;;6.73;6.13;;;24.10;99.90;;;;;;5115611;28;20439;-77
2023/06/08 08:46:37;;;;;;;7.07;6.47;;;24.20;99.90;;;;;;5115359;28;20434;-77
2023/06/08 08:49:09;;;;;;;6.70;6.10;;;24.20;99.90;;;;;;5117056;28;20427;-76
2023/06/08 08:51:43;;;;;;;6.80;6.33;;;23.80;99.90;;;;;;5117317;28;20518;-77
2023/06/08 08:54:13;;;;;;;6.80;6.30;;;23.70;99.90;;;;;;5115715;28;20467;-78
2023/06/08 08:56:46;;;;;;;7.20;6.60;;;24.00;99.90;;;;;;5117610;28;20524;-77
2023/06/08 08:59:19;;;;;;;9.33;8.00;;;24.20;99.90;;;;;;5114395;28;20439;-78
2023/06/08 09:01:51;;;;;;;6.73;6.23;;;23.90;99.90;;;;;;5107594;28;20466;-78
2023/06/08 09:04:20;;;;;;;6.93;6.47;;;23.80;99.90;;;;;;5102009;28;20538;-78
2023/06/08 09:06:53;;;;;;;7.03;6.53;;;24.30;99.90;;;;;;5101214;28;20994;-79
2023/06/08 09:09:25;;;;;;;6.57;6.10;;;24.50;99.90;;;;;;5108067;28;20922;-75
2023/06/08 09:12:05;;;;;;;6.23;5.83;;;24.70;99.90;;;;;;5099746;28;20537;-77
2023/06/08 09:14:36;;;;;;;6.77;6.13;;;24.90;99.90;;;;;;5100299;28;20559;-77
2023/06/08 09:17:07;;;;;;;6.40;5.97;;;24.60;99.90;;;;;;5100260;28;20475;-78
2023/06/08 09:19:35;;;;;;;7.07;6.57;;;24.90;99.90;;;;;;5102494;28;20506;-77
2023/06/08 09:22:09;;;;;;;6.30;5.90;;;24.50;99.90;;;;;;5107304;28;20451;-77
2023/06/08 09:25:03;;;;;;;6.07;5.67;;;24.50;99.90;;;;;;5107169;28;20455;-77
2023/06/08 09:28:03;;;;;;;;;;;;;;;;;;;;;
2023/06/08 09:31:18;;;;;;;;;;;;;;;;;;;;;
2023/06/08 09:34:19;;;;;;;5.77;5.27;;;25.30;99.90;;;;;;5103422;28;20450;-78
2023/06/08 09:36:54;;;;;;;5.63;5.17;;;25.30;99.90;;;;;;5102193;28;20939;-76
2023/06/08 09:39:50;;;;;;;5.13;4.73;;;25.10;99.90;;;;;;5108619;28;20443;-77
2023/06/08 09:45:50;;;;;;;5.13;4.83;;;25.40;99.90;;;;;;5081964;28;20487;-77
2023/06/08 09:48:26;;;;;;;5.73;5.30;;;25.90;99.90;;;;;;5104719;28;20452;-77
2023/06/08 09:51:06;;;;;;;6.47;6.07;;;26.20;99.90;;;;;;5101309;28;20590;-78
2023/06/08 09:53:43;;;;;;;5.70;5.40;;;25.60;99.90;;;;;;5104742;28;21129;-77
2023/06/08 09:56:28;;;;;;;5.60;5.20;;;25.70;99.90;;;;;;5104238;28;20431;-77
2023/06/08 09:58:58;;;;;;;6.37;5.87;;;26.00;99.90;;;;;;5104765;28;20450;-77
2023/06/08 10:01:47;;;;;;;5.97;5.57;;;26.40;99.90;;;;;;5106090;28;20531;-76
2023/06/08 10:04:28;;;;;;;5.80;5.50;;;26.60;99.90;;;;;;5107595;28;20440;-77
2023/06/08 10:07:04;;;;;;;5.23;4.93;;;26.90;99.90;;;;;;5108966;28;20443;-77
2023/06/08 10:09:40;;;;;;;5.90;5.60;;;26.80;99.90;;;;;;5109344;28;20440;-76
2023/06/08 10:12:17;;;;;;;6.10;5.70;;;27.30;99.90;;;;;;5106649;28;20473;-77
2023/06/08 10:14:46;;;;;;;6.07;5.47;;;27.40;99.90;;;;;;5105594;28;20444;-77
2023/06/08 10:17:15;;;;;;;6.17;5.77;;;27.10;99.90;;;;;;5100975;28;20484;-77
2023/06/08 10:19:47;;;;;;;5.73;5.33;;;27.70;99.90;;;;;;5100125;28;20547;-77
2023/06/08 10:22:34;;;;;;;5.40;5.10;;;28.10;99.90;;;;;;5101901;28;20560;-77
2023/06/08 10:25:09;;;;;;;6.20;5.80;;;28.50;99.90;;;;;;5104956;28;20507;-76
2023/06/08 10:27:53;;;;;;;5.17;4.87;;;28.80;99.60;;;;;;5102077;28;20436;-78
2023/06/08 10:30:39;;;;;;;5.60;5.20;;;28.60;97.60;;;;;;5102832;28;20463;-78
2023/06/08 10:33:19;;;;;;;5.70;5.30;;;28.30;97.60;;;;;;5103258;28;20433;-78
2023/06/08 10:36:09;;;;;;;5.80;5.40;;;28.70;95.50;;;;;;5101940;28;20440;-77
2023/06/08 10:38:54;;;;;;;5.93;5.30;;;29.20;95.30;;;;;;5098205;28;20459;-77
2023/06/08 10:41:40;;;;;;;5.50;5.07;;;29.30;96.30;;;;;;5098292;28;20559;-76
2023/06/08 10:44:26;;;;;;;5.60;5.20;;;29.50;94.20;;;;;;5097873;28;20463;-78
2023/06/08 10:47:02;;;;;;;5.40;5.10;;;29.50;92.90;;;;;;5100901;28;20476;-76
2023/06/08 10:49:58;;;;;;;6.00;5.50;;;29.30;93.00;;;;;;5097281;28;20791;-76
2023/06/08 10:52:43;;;;;;;6.67;5.23;;;29.20;92.80;;;;;;5092331;28;20484;-77
2023/06/08 10:55:19;;;;;;;5.80;5.50;;;28.80;91.50;;;;;;5093054;28;20540;-78
2023/06/08 10:57:52;;;;;;;6.23;5.70;;;29.20;92.60;;;;;;5095268;28;20507;-77
2023/06/08 11:00:44;;;;;;;6.47;5.97;;;29.70;92.30;;;;;;5097399;28;20544;-76
2023/06/08 11:03:21;;;;;;;6.00;5.60;;;30.10;91.00;;;;;;5094731;28;20468;-77
2023/06/08 11:06:01;;;;;;;6.30;5.80;;;30.10;90.10;;;;;;5095975;28;20444;-77
2023/06/08 11:08:29;;;;;;;6.33;5.93;;;30.20;89.70;;;;;;5096556;28;20460;-76
2023/06/08 11:11:45;;;;;;;6.60;6.20;;;30.40;90.00;;;;;;5097170;28;20477;-78
2023/06/08 11:14:30;;;;;;;6.20;5.70;;;30.50;90.00;;;;;;5096575;28;20470;-76
2023/06/08 11:17:07;;;;;;;6.27;5.77;;;30.90;84.10;;;;;;5097439;28;20938;-77
2023/06/08 11:19:35;;;;;;;5.80;5.40;;;31.30;81.10;;;;;;5096417;28;20454;-77
2023/06/08 11:22:19;;;;;;;5.80;5.40;;;30.60;80.80;;;;;;5096960;28;20464;-76
2023/06/08 11:24:57;;;;;;;6.20;5.80;;;30.70;81.50;;;;;;5093840;28;20476;-77
2023/06/08 11:27:30;;;;;;;7.10;6.50;;;31.20;82.20;;;;;;5093448;28;20428;-77
2023/06/08 11:30:07;;;;;;;7.07;6.47;;;31.40;81.70;;;;;;5093159;28;20483;-77
2023/06/08 11:32:39;;;;;;;6.33;5.93;;;31.40;81.50;;;;;;5092743;28;21354;-77
2023/06/08 11:35:08;;;;;;;6.67;6.23;;;31.60;80.30;;;;;;5093574;28;20799;-76
2023/06/08 11:37:39;;;;;;;6.83;6.23;;;31.60;78.60;;;;;;5093709;28;20481;-76
2023/06/08 11:40:12;;;;;;;6.60;6.20;;;31.50;77.70;;;;;;5094655;28;20449;-77
2023/06/08 11:42:45;;;;;;;6.47;5.97;;;31.80;77.20;;;;;;5095366;28;20472;-76
2023/06/08 11:45:22;;;;;;;6.23;5.83;;;31.90;77.50;;;;;;5095752;28;20430;-76
2023/06/08 11:47:54;;;;;;;6.90;6.40;;;31.60;76.80;;;;;;5093659;28;20524;-77
2023/06/08 11:56:47;;;;;;;6.80;6.40;;;31.30;76.30;;;;;;5092733;28;20517;-78
2023/06/08 11:59:39;;;;;;;6.60;6.10;;;31.20;77.40;;;;;;5099846;28;20537;-78
2023/06/08 12:13:00;;;;;;;6.13;5.73;;;31.00;72.80;;;;;;4987646;28;20488;-77
2023/06/08 12:19:11;;;;;;;7.10;6.33;;;32.70;70.60;;;;;;4950286;29;20436;-78
2023/06/08 12:22:13;;;;;;;7.00;5.60;;;32.20;70.90;;;;;;5078404;28;20513;-77
2023/06/08 12:24:43;;;;;;;6.50;6.10;;;31.70;71.70;;;;;;5082766;28;20444;-77
2023/06/08 12:27:27;;;;;;;6.00;5.60;;;31.60;71.10;;;;;;5107884;28;20429;-78
2023/06/08 12:30:04;;;;;;;6.27;5.87;;;31.40;71.20;;;;;;5104078;28;20449;-76
2023/06/08 12:35:20;;;;;;;6.60;6.10;;;31.30;71.70;;;;;;5100056;28;20519;-77
2023/06/08 12:41:18;;;;;;;8.80;5.30;;;30.00;75.40;;;;;;5096758;28;20445;-76
2023/06/08 12:47:48;;;;;;;15.80;6.37;;;28.90;78.10;;;;;;5053977;28;20427;-76
2023/06/08 12:54:25;;;;;;;15.33;8.30;;;26.00;97.50;;;;;;4981850;28;20485;-75
2023/06/08 13:05:43;;;;;;;17.47;10.67;;;21.30;99.90;;;;;;4833849;29;20467;-75
2023/06/08 13:08:18;;;;;;;6.03;5.53;;;20.20;99.90;;;;;;5043435;28;20438;-74
2023/06/08 13:10:53;;;;;;;11.77;8.70;;;20.00;99.90;;;;;;5057888;28;20433;-76
2023/06/08 13:13:30;;;;;;;12.33;9.63;;;19.80;99.90;;;;;;5057900;28;20481;-75
2023/06/08 13:16:05;;;;;;;14.20;9.63;;;19.30;99.90;;;;;;5058130;28;20444;-75
2023/06/08 13:18:47;;;;;;;;;;;;;;;;;;;;;
2023/06/08 13:21:53;;;;;;;11.00;8.53;;;18.60;99.90;;;;;;5101020;28;20440;-75
2023/06/08 13:30:46;;;;;;;10.90;8.60;;;18.90;99.90;;;;;;5092972;28;20444;-75
2023/06/08 13:34:07;;;;;;;8.83;6.60;;;18.80;99.90;;;;;;5102873;28;20566;-77
2023/06/08 13:37:14;;;;;;;7.73;6.20;;;18.40;99.90;;;;;;5038733;28;20443;-76
2023/06/08 13:40:04;;;;;;;10.13;7.40;;;18.10;99.90;;;;;;5087169;28;20440;-75
2023/06/08 13:52:07;;;;;;;7.90;6.33;;;17.60;99.90;;;;;;5100730;28;20582;-76
2023/06/08 13:55:00;;;;;;;8.00;7.27;;;17.60;99.90;;;;;;5102613;28;20447;-77
2023/06/08 13:57:35;;;;;;;8.30;7.67;;;17.60;99.90;;;;;;5101308;28;20452;-74
2023/06/08 14:00:08;;;;;;;9.97;9.07;;;17.60;99.90;;;;;;5099292;28;20984;-76
2023/06/08 14:13:02;;;;;;;10.67;9.63;;;17.60;99.90;;;;;;5095853;22;20466;-76
2023/06/08 14:15:34;;;;;;;10.57;9.63;;;17.60;99.90;;;;;;5060672;28;20573;-76
2023/06/08 14:18:15;;;;;;;11.00;10.10;;;17.60;99.90;;;;;;5057960;28;20454;-75
2023/06/08 14:20:44;;;;;;;10.67;9.63;;;17.50;99.90;;;;;;5060159;28;20441;-76
2023/06/08 14:23:16;;;;;;;11.60;10.50;;;17.40;99.90;;;;;;5058726;28;20454;-75
2023/06/08 14:25:43;;;;;;;14.23;10.07;;;17.40;99.90;;;;;;5061964;28;20443;-77
2023/06/08 14:28:13;;;;;;;11.53;10.60;;;17.40;99.90;;;;;;5060150;28;20454;-75
2023/06/08 14:30:41;;;;;;;12.23;11.10;;;17.40;99.90;;;;;;5060366;28;20526;-76
2023/06/08 14:33:11;;;;;;;10.87;9.87;;;17.40;99.90;;;;;;5060913;28;20548;-76
2023/06/08 14:35:38;;;;;;;11.47;10.33;;;17.50;99.90;;;;;;5062893;28;20456;-77
2023/06/08 14:38:10;;;;;;;12.50;11.30;;;17.60;99.90;;;;;;5064937;28;20450;-75
2023/06/08 14:40:46;;;;;;;10.20;9.23;;;17.70;99.90;;;;;;5062495;28;20487;-75
2023/06/08 14:43:17;;;;;;;12.00;11.10;;;17.80;99.90;;;;;;5063132;28;20506;-78
2023/06/08 14:45:48;;;;;;;10.87;9.77;;;17.80;99.90;;;;;;5060692;28;20505;-76
2023/06/08 14:48:17;;;;;;;9.33;8.40;;;17.70;99.90;;;;;;5058609;28;20456;-78
2023/06/08 14:50:44;;;;;;;8.17;7.50;;;17.70;99.90;;;;;;5055610;28;20538;-77
2023/06/08 14:53:14;;;;;;;8.20;6.70;;;17.80;99.90;;;;;;5058224;28;20494;-77
2023/06/08 14:55:42;;;;;;;8.40;7.60;;;17.90;99.90;;;;;;5058788;28;20474;-77
2023/06/08 14:58:18;;;;;;;7.30;6.70;;;18.10;99.90;;;;;;5058559;28;20445;-77
2023/06/08 15:00:59;;;;;;;7.60;6.90;;;18.20;99.90;;;;;;5057966;28;20453;-76
2023/06/08 15:03:30;;;;;;;6.57;5.93;;;18.00;99.90;;;;;;5057285;28;20441;-75
2023/06/08 15:06:05;;;;;;;7.23;6.33;;;18.10;99.90;;;;;;5060542;28;20442;-75
2023/06/08 15:14:30;;;;;;;9.63;8.77;;;18.30;99.90;;;;;;5061654;28;20477;-76
2023/06/08 15:17:26;;;;;;;11.27;10.17;;;18.20;99.90;;;;;;5060106;28;20501;-77
2023/06/08 15:20:06;;;;;;;9.30;8.50;;;18.30;99.90;;;;;;5058363;28;20445;-77
2023/06/08 15:26:41;;;;;;;10.47;9.43;;;18.30;99.90;;;;;;5037985;28;20449;-78
2023/06/08 15:32:00;;;;;;;9.30;8.60;;;18.40;99.90;;;;;;5059718;28;20540;-77
2023/06/08 15:34:39;;;;;;;9.60;8.80;;;18.50;99.90;;;;;;5061650;28;20437;-77
2023/06/08 15:37:09;;;;;;;11.23;10.33;;;18.60;99.90;;;;;;5061652;28;20491;-76
2023/06/08 15:39:40;;;;;;;10.03;9.20;;;18.70;99.90;;;;;;5062551;28;20458;-75
2023/06/08 15:42:19;;;;;;;9.20;8.40;;;18.80;99.90;;;;;;5062937;28;20537;-77
2023/06/08 15:45:21;;;;;;;8.23;7.53;;;18.90;99.90;;;;;;5062527;28;20445;-78
2023/06/08 15:47:55;;;;;;;10.30;9.50;;;18.90;99.90;;;;;;5060660;28;20449;-76
2023/06/08 15:50:24;;;;;;;10.70;9.80;;;19.30;99.90;;;;;;5059831;28;20441;-77
2023/06/08 15:53:03;;;;;;;9.80;8.80;;;19.30;99.90;;;;;;5055378;28;20494;-76
2023/06/08 15:55:38;;;;;;;10.73;9.83;;;19.30;99.90;;;;;;5053613;28;20532;-76
2023/06/08 15:58:25;;;;;;;10.37;9.40;;;19.40;99.90;;;;;;5053440;28;20548;-77
2023/06/08 16:01:14;;;;;;;;;;;;;;;;;;;;;
2023/06/08 16:03:46;;;;;;;10.97;9.97;;;19.40;99.90;;;;;;5051925;28;20673;-76
2023/06/08 16:06:24;;;;;;;10.63;9.70;;;19.50;99.90;;;;;;5051363;28;20461;-77
2023/06/08 16:08:54;;;;;;;11.50;10.50;;;19.50;99.90;;;;;;5051805;28;20461;-78
2023/06/08 16:11:26;;;;;;;11.03;9.97;;;19.60;99.90;;;;;;5051879;28;20489;-76
2023/06/08 16:13:58;;;;;;;10.40;9.50;;;19.70;99.90;;;;;;5052754;28;20480;-77
2023/06/08 16:19:38;;;;;;;10.63;9.63;;;20.00;99.90;;;;;;5048524;28;20439;-78
2023/06/08 16:22:25;;;;;;;11.13;9.70;;;20.20;99.90;;;;;;5033474;28;20462;-74
2023/06/08 16:25:03;;;;;;;10.77;9.67;;;20.20;99.90;;;;;;5044958;28;20466;-76
2023/06/08 16:27:37;;;;;;;10.57;9.37;;;20.20;99.90;;;;;;5040208;28;20881;-76
2023/06/08 16:30:19;;;;;;;11.20;9.27;;;20.50;99.90;;;;;;5046943;28;20460;-75
2023/06/08 16:32:48;;;;;;;9.60;8.80;;;20.50;99.90;;;;;;5051385;28;20563;-74
2023/06/08 16:35:19;;;;;;;10.23;9.40;;;20.60;99.90;;;;;;5052669;28;20506;-76
2023/06/08 16:37:49;;;;;;;10.43;9.50;;;20.60;99.90;;;;;;5051932;28;20546;-76
2023/06/08 16:40:19;;;;;;;9.47;8.57;;;20.60;99.90;;;;;;5050760;28;20453;-76
2023/06/08 16:43:06;;;;;;;9.17;8.40;;;20.90;99.90;;;;;;5050818;28;20446;-75
2023/06/08 16:45:46;;;;;;;8.73;7.97;;;21.20;99.90;;;;;;5054266;28;20772;-76
2023/06/08 16:48:32;;;;;;;8.03;7.47;;;21.40;99.90;;;;;;5056058;28;20449;-75
2023/06/08 16:55:41;;;;;;;8.20;7.50;;;21.80;99.90;;;;;;5054374;28;20538;-75
2023/06/08 16:59:00;;;;;;;;;;;;;;;;;;;;;
2023/06/08 17:04:22;;;;;;;8.13;7.43;;;22.30;99.90;;;;;;4993687;28;20432;-78
2023/06/08 17:06:59;;;;;;;9.13;8.20;;;22.20;99.90;;;;;;5048011;28;20452;-75
2023/06/08 17:09:39;;;;;;;9.43;8.53;;;21.90;99.90;;;;;;5055437;28;20544;-75
2023/06/08 17:15:02;;;;;;;9.63;8.80;;;21.90;99.90;;;;;;5051417;28;20516;-75
2023/06/08 17:21:01;;;;;;;9.87;8.97;;;22.10;99.90;;;;;;5014744;28;20760;-76
2023/06/08 17:29:45;;;;;;;7.87;7.27;;;22.30;99.90;;;;;;5031082;28;20438;-74
2023/06/08 17:35:35;;;;;;;8.67;8.00;;;22.90;99.90;;;;;;5052843;28;20472;-75
2023/06/08 17:38:24;;;;;;;8.30;7.40;;;23.10;99.90;;;;;;5060977;28;20485;-75
2023/06/08 17:41:14;;;;;;;10.00;7.93;;;23.10;99.90;;;;;;5057102;28;20449;-76
2023/06/08 17:44:00;;;;;;;8.40;7.70;;;23.20;99.90;;;;;;5062964;28;20445;-76
2023/06/08 17:46:44;;;;;;;8.77;7.97;;;23.00;99.90;;;;;;5059160;28;20465;-76
2023/06/08 17:49:34;;;;;;;8.13;7.33;;;22.70;99.90;;;;;;5060897;28;20468;-75
2023/06/08 17:52:39;;;;;;;9.20;8.40;;;22.70;99.90;;;;;;5046784;28;20474;-75
2023/06/08 18:06:01;;;;;;;8.70;7.90;;;22.30;99.90;;;;;;4774892;30;20975;-76
2023/06/08 18:19:38;;;;;;;9.13;8.33;;;22.10;99.90;;;;;;4828654;29;20456;-74